createdAt,value
2017-07-11T00:01:58.305Z,18.97
2017-07-11T00:04:30.842Z,18.88
2017-07-11T00:07:03.117Z,18.84
2017-07-11T00:09:35.396Z,18.82
2017-07-11T00:12:07.791Z,18.83
2017-07-11T00:14:40.085Z,18.83
2017-07-11T00:17:12.521Z,18.85
2017-07-11T00:19:44.917Z,18.84
2017-07-11T00:22:17.589Z,18.87
2017-07-11T00:24:59.993Z,18.85
2017-07-11T00:27:32.207Z,18.80
2017-07-11T00:30:05.567Z,18.77
2017-07-11T00:32:37.941Z,18.69
2017-07-11T00:35:10.694Z,18.74
2017-07-11T00:37:43.080Z,18.73
2017-07-11T00:40:16.245Z,18.77
2017-07-11T00:42:48.565Z,18.65
2017-07-11T00:45:21.079Z,18.72
2017-07-11T00:47:54.698Z,18.70
2017-07-11T00:50:27.086Z,18.75
2017-07-11T00:52:59.176Z,18.69
2017-07-11T00:55:31.687Z,18.71
2017-07-11T00:58:04.016Z,18.78
2017-07-11T01:00:36.890Z,18.83
2017-07-11T01:03:08.886Z,18.85
2017-07-11T01:05:42.352Z,18.84
2017-07-11T01:08:14.694Z,18.93
2017-07-11T01:10:47.086Z,18.94
2017-07-11T01:13:19.432Z,18.94
2017-07-11T01:15:51.934Z,18.98
2017-07-11T01:18:24.150Z,19.04
2017-07-11T01:20:56.489Z,19.04
2017-07-11T01:23:28.884Z,18.92
2017-07-11T01:26:01.346Z,18.98
2017-07-11T01:28:33.542Z,18.87
2017-07-11T01:31:06.025Z,18.90
2017-07-11T01:33:38.289Z,18.90
2017-07-11T01:36:10.629Z,18.90
2017-07-11T01:38:43.057Z,18.92
2017-07-11T01:41:15.298Z,18.90
2017-07-11T01:43:47.459Z,18.95
2017-07-11T01:46:19.840Z,18.85
2017-07-11T01:48:52.226Z,18.89
2017-07-11T01:51:24.640Z,18.88
2017-07-11T01:53:57.047Z,18.81
2017-07-11T01:56:29.432Z,18.81
2017-07-11T01:59:01.933Z,18.80
2017-07-11T02:01:35.202Z,18.78
2017-07-11T02:04:07.670Z,18.73
2017-07-11T02:06:40.030Z,18.73
2017-07-11T02:09:12.347Z,18.70
2017-07-11T02:11:44.806Z,18.67
2017-07-11T02:14:17.357Z,18.67
2017-07-11T02:16:49.873Z,18.62
2017-07-11T02:19:22.148Z,18.63
2017-07-11T02:21:54.913Z,18.57
2017-07-11T02:24:26.782Z,18.62
2017-07-11T02:26:59.102Z,18.59
2017-07-11T02:29:32.201Z,18.58
2017-07-11T02:32:04.800Z,18.55
2017-07-11T02:34:37.295Z,18.49
2017-07-11T02:37:09.642Z,18.35
2017-07-11T02:39:41.967Z,18.40
2017-07-11T02:42:14.541Z,18.41
2017-07-11T02:44:46.795Z,18.43
2017-07-11T02:47:19.165Z,18.45
2017-07-11T02:49:51.548Z,18.42
2017-07-11T02:52:23.817Z,18.45
2017-07-11T02:54:56.173Z,18.44
2017-07-11T02:57:28.546Z,18.43
2017-07-11T03:00:00.872Z,18.37
2017-07-11T03:02:33.224Z,18.36
2017-07-11T03:05:05.628Z,18.38
2017-07-11T03:07:38.352Z,18.39
2017-07-11T03:10:10.414Z,18.23
2017-07-11T03:12:43.668Z,18.41
2017-07-11T03:15:16.082Z,18.41
2017-07-11T03:17:48.522Z,18.43
2017-07-11T03:20:20.874Z,18.46
2017-07-11T03:22:53.264Z,18.42
2017-07-11T03:25:25.548Z,18.46
2017-07-11T03:27:57.976Z,18.50
2017-07-11T03:30:30.353Z,18.47
2017-07-11T03:33:03.792Z,18.51
2017-07-11T03:35:36.105Z,18.54
2017-07-11T03:38:08.460Z,18.51
2017-07-11T03:40:40.712Z,18.46
2017-07-11T03:43:13.102Z,18.40
2017-07-11T03:45:45.485Z,18.43
2017-07-11T03:48:18.650Z,18.41
2017-07-11T03:50:51.193Z,18.40
2017-07-11T03:53:23.592Z,18.38
2017-07-11T03:55:56.041Z,18.38
2017-07-11T03:58:28.483Z,18.29
2017-07-11T04:01:00.864Z,18.32
2017-07-11T04:03:34.090Z,18.35
2017-07-11T04:06:06.641Z,18.40
2017-07-11T04:08:39.102Z,18.48
2017-07-11T04:11:11.536Z,18.54
2017-07-11T04:13:43.931Z,18.60
2017-07-11T04:16:16.330Z,18.62
2017-07-11T04:18:49.551Z,18.63
2017-07-11T04:21:22.016Z,18.64
2017-07-11T04:23:55.333Z,18.61
2017-07-11T04:26:27.660Z,18.62
2017-07-11T04:29:00.084Z,18.70
2017-07-11T04:31:32.428Z,18.99
2017-07-11T04:34:05.005Z,19.49
2017-07-11T04:36:37.369Z,20.18
2017-07-11T04:39:09.762Z,20.87
2017-07-11T04:41:42.209Z,21.34
2017-07-11T04:44:14.618Z,21.57
2017-07-11T04:46:46.903Z,21.44
2017-07-11T04:49:19.340Z,20.68
2017-07-11T04:51:51.626Z,20.35
2017-07-11T04:54:24.093Z,19.98
2017-07-11T04:56:56.546Z,19.88
2017-07-11T04:59:28.916Z,19.74
2017-07-11T05:02:01.359Z,19.57
2017-07-11T05:04:33.823Z,19.53
2017-07-11T05:07:06.152Z,19.55
2017-07-11T05:09:38.690Z,19.50
2017-07-11T05:12:11.013Z,19.40
2017-07-11T05:14:43.337Z,19.38
2017-07-11T05:17:15.692Z,19.41
2017-07-11T05:19:48.025Z,19.29
2017-07-11T05:22:20.401Z,19.19
2017-07-11T05:24:53.638Z,19.26
2017-07-11T05:27:25.999Z,19.29
2017-07-11T05:29:58.285Z,19.12
2017-07-11T05:32:30.733Z,19.23
2017-07-11T05:35:03.047Z,19.34
2017-07-11T05:37:35.177Z,19.60
2017-07-11T05:40:07.444Z,19.85
2017-07-11T05:42:39.815Z,20.03
2017-07-11T05:45:12.090Z,20.03
2017-07-11T05:47:44.424Z,20.21
2017-07-11T05:50:17.861Z,20.36
2017-07-11T05:52:50.205Z,20.59
2017-07-11T05:55:22.681Z,20.51
2017-07-11T05:57:55.089Z,20.40
2017-07-11T06:00:27.509Z,20.19
2017-07-11T06:02:59.897Z,20.20
2017-07-11T06:05:32.397Z,20.11
2017-07-11T06:08:04.847Z,20.09
2017-07-11T06:10:37.248Z,19.90
2017-07-11T06:13:09.544Z,19.79
2017-07-11T06:15:41.913Z,19.93
2017-07-11T06:18:14.343Z,20.01
2017-07-11T06:20:46.720Z,20.03
2017-07-11T06:23:19.108Z,19.76
2017-07-11T06:25:52.281Z,19.87
2017-07-11T06:28:24.742Z,19.91
2017-07-11T06:30:58.010Z,20.08
2017-07-11T06:33:30.621Z,20.60
2017-07-11T06:36:03.204Z,21.47
2017-07-11T06:38:35.654Z,22.03
2017-07-11T06:41:08.305Z,21.67
2017-07-11T06:43:40.381Z,21.65
2017-07-11T06:46:13.112Z,21.83
2017-07-11T06:48:45.232Z,22.67
2017-07-11T06:51:17.488Z,23.91
2017-07-11T06:53:49.960Z,24.84
2017-07-11T06:56:22.424Z,25.57
2017-07-11T06:58:54.756Z,26.28
2017-07-11T07:01:27.567Z,26.03
2017-07-11T07:03:59.613Z,25.15
2017-07-11T07:06:31.988Z,25.00
2017-07-11T07:09:04.389Z,24.55
2017-07-11T07:11:36.786Z,24.71
2017-07-11T07:14:09.341Z,24.94
2017-07-11T07:16:41.637Z,25.17
2017-07-11T07:19:13.876Z,25.62
2017-07-11T07:21:46.362Z,25.67
2017-07-11T07:24:18.768Z,25.24
2017-07-11T07:26:51.525Z,25.35
2017-07-11T07:29:24.338Z,26.10
2017-07-11T07:31:56.917Z,25.97
2017-07-11T07:34:28.885Z,25.51
2017-07-11T07:37:01.534Z,25.54
2017-07-11T07:39:33.776Z,24.44
2017-07-11T07:42:06.157Z,24.45
2017-07-11T07:44:38.667Z,25.15
2017-07-11T07:47:11.024Z,25.84
2017-07-11T07:49:43.340Z,25.18
2017-07-11T07:52:15.713Z,25.16
2017-07-11T07:54:48.116Z,25.61
2017-07-11T07:57:20.522Z,25.25
2017-07-11T07:59:52.973Z,24.68
2017-07-11T08:02:25.529Z,24.84
2017-07-11T08:04:57.958Z,26.10
2017-07-11T08:07:30.317Z,27.26
2017-07-11T08:10:02.768Z,27.69
2017-07-11T08:12:35.485Z,26.69
2017-07-11T08:15:07.450Z,24.93
2017-07-11T08:17:39.894Z,23.96
2017-07-11T08:20:12.465Z,23.54
2017-07-11T08:22:44.602Z,23.04
2017-07-11T08:25:17.013Z,22.70
2017-07-11T08:27:49.417Z,22.75
2017-07-11T08:30:21.650Z,23.03
2017-07-11T08:32:55.138Z,23.00
2017-07-11T08:35:27.472Z,22.59
2017-07-11T08:38:00.005Z,22.66
2017-07-11T08:40:32.399Z,22.94
2017-07-11T08:43:04.784Z,22.60
2017-07-11T08:45:37.069Z,22.29
2017-07-11T08:48:09.560Z,21.70
2017-07-11T08:50:41.845Z,21.73
2017-07-11T08:53:14.567Z,21.58
2017-07-11T08:55:46.777Z,21.34
2017-07-11T08:58:18.906Z,21.23
2017-07-11T09:00:51.289Z,21.45
2017-07-11T09:03:23.749Z,21.57
2017-07-11T09:05:56.244Z,21.66
2017-07-11T09:08:28.616Z,21.63
2017-07-11T09:11:00.970Z,21.56
2017-07-11T09:13:33.347Z,21.53
2017-07-11T09:16:05.721Z,21.30
2017-07-11T09:18:38.065Z,21.19
2017-07-11T09:21:10.349Z,21.23
2017-07-11T09:23:43.131Z,20.91
2017-07-11T09:26:15.202Z,20.93
2017-07-11T09:28:47.574Z,20.96
2017-07-11T09:31:19.939Z,20.78
2017-07-11T09:33:52.456Z,20.76
2017-07-11T09:36:24.901Z,20.69
2017-07-11T09:38:57.169Z,20.44
2017-07-11T09:41:29.845Z,20.41
2017-07-11T09:44:01.840Z,20.53
2017-07-11T09:46:34.193Z,20.64
2017-07-11T09:49:06.684Z,20.44
2017-07-11T09:51:39.193Z,20.55
2017-07-11T09:54:11.592Z,20.30
2017-07-11T09:56:44.248Z,20.32
2017-07-11T09:59:17.486Z,20.55
2017-07-11T10:01:49.999Z,20.76
2017-07-11T10:04:22.609Z,20.80
2017-07-11T10:06:55.025Z,20.72
2017-07-11T10:09:27.237Z,20.71
2017-07-11T10:12:00.055Z,20.61
2017-07-11T10:14:33.133Z,20.51
2017-07-11T10:17:05.489Z,20.62
2017-07-11T10:19:37.902Z,20.81
2017-07-11T10:22:10.388Z,20.79
2017-07-11T10:24:42.873Z,20.75
2017-07-11T10:27:15.229Z,20.68
2017-07-11T10:29:47.658Z,20.70
2017-07-11T10:45:25.288Z,22.25
2017-07-11T10:47:57.518Z,22.31
2017-07-11T10:50:29.733Z,22.47
2017-07-11T10:53:02.211Z,23.06
2017-07-11T10:55:34.449Z,23.40
2017-07-11T10:58:07.033Z,23.87
2017-07-11T11:00:39.891Z,24.37
2017-07-11T11:03:12.613Z,24.39
2017-07-11T11:05:46.036Z,25.09
2017-07-11T11:08:18.544Z,25.08
2017-07-11T11:10:51.053Z,25.15
2017-07-11T11:13:23.406Z,25.30
2017-07-11T11:15:55.717Z,25.59
2017-07-11T11:18:28.281Z,25.96
2017-07-11T11:21:00.473Z,26.14
2017-07-11T11:23:32.934Z,26.87
2017-07-11T11:26:05.339Z,27.01
2017-07-11T11:28:38.593Z,26.64
2017-07-11T11:31:11.115Z,26.12
2017-07-11T11:33:43.766Z,26.02
2017-07-11T11:36:15.945Z,25.67
2017-07-11T11:38:48.513Z,25.48
2017-07-11T11:41:20.684Z,24.93
2017-07-11T11:43:53.363Z,24.87
2017-07-11T11:46:25.938Z,25.88
2017-07-11T11:48:57.982Z,26.31
2017-07-11T11:51:30.352Z,26.13
2017-07-11T11:54:03.085Z,26.36
2017-07-11T11:56:35.792Z,26.09
2017-07-11T11:59:08.730Z,26.13
2017-07-11T12:01:41.054Z,26.48
2017-07-11T12:04:13.244Z,26.65
2017-07-11T12:06:45.584Z,27.37
2017-07-11T12:09:17.914Z,27.81
2017-07-11T12:11:50.301Z,27.21
2017-07-11T12:14:22.636Z,27.68
2017-07-11T12:16:54.973Z,27.83
2017-07-11T12:19:27.325Z,28.59
2017-07-11T12:21:59.669Z,28.96
2017-07-11T12:24:32.040Z,28.60
2017-07-11T12:27:04.413Z,28.02
2017-07-11T12:29:36.838Z,27.13
2017-07-11T12:32:09.192Z,26.85
2017-07-11T12:34:41.421Z,26.78
2017-07-11T12:37:13.862Z,26.82
2017-07-11T12:39:46.341Z,26.99
2017-07-11T12:42:18.692Z,26.98
2017-07-11T12:44:51.945Z,26.47
2017-07-11T12:47:24.429Z,26.44
2017-07-11T12:49:56.844Z,26.37
2017-07-11T12:52:29.321Z,26.16
2017-07-11T12:55:01.721Z,26.35
2017-07-11T12:57:34.120Z,27.04
2017-07-11T13:00:06.639Z,27.13
2017-07-11T13:02:39.060Z,26.79
2017-07-11T13:05:11.446Z,26.49
2017-07-11T13:07:43.786Z,26.87
2017-07-11T13:10:17.437Z,27.22
2017-07-11T13:12:49.492Z,27.67
2017-07-11T13:15:21.901Z,27.61
2017-07-11T13:17:54.258Z,27.64
2017-07-11T13:20:26.693Z,27.87
2017-07-11T13:22:59.015Z,27.95
2017-07-11T13:25:31.292Z,27.92
2017-07-11T13:28:03.641Z,28.37
2017-07-11T13:30:35.953Z,28.20
2017-07-11T13:33:08.380Z,27.91
2017-07-11T13:35:40.784Z,28.15
2017-07-11T13:38:13.808Z,28.43
2017-07-11T13:40:46.545Z,28.22
2017-07-11T13:43:18.858Z,28.13
2017-07-11T13:45:52.098Z,28.16
2017-07-11T13:48:24.573Z,28.02
2017-07-11T13:50:56.913Z,27.89
2017-07-11T13:53:29.432Z,27.38
2017-07-11T13:56:01.916Z,27.49
2017-07-11T13:58:34.276Z,27.77
2017-07-11T14:01:06.801Z,27.69
2017-07-11T14:03:39.254Z,27.62
2017-07-11T14:06:11.730Z,27.80
2017-07-11T14:08:44.170Z,27.89
2017-07-11T14:11:16.614Z,27.68
2017-07-11T14:13:49.036Z,27.72
2017-07-11T14:16:21.425Z,27.71
2017-07-11T14:18:53.894Z,27.52
2017-07-11T14:21:26.194Z,27.30
2017-07-11T14:23:58.620Z,27.37
2017-07-11T14:26:31.126Z,27.27
2017-07-11T14:29:03.480Z,27.07
2017-07-11T14:31:35.876Z,27.06
2017-07-11T14:34:08.214Z,27.13
2017-07-11T14:36:40.625Z,27.09
2017-07-11T14:39:12.955Z,27.01
2017-07-11T14:41:46.192Z,26.83
2017-07-11T14:44:18.669Z,26.40
2017-07-11T14:46:52.032Z,26.57
2017-07-11T14:49:25.366Z,26.65
2017-07-11T14:51:57.969Z,26.73
2017-07-11T14:54:30.310Z,26.98
2017-07-11T14:57:02.762Z,26.76
2017-07-11T14:59:35.194Z,26.90
2017-07-11T15:02:07.513Z,26.76
2017-07-11T15:04:39.977Z,26.85
2017-07-11T15:07:12.594Z,26.52
2017-07-11T15:09:45.071Z,26.24
2017-07-11T15:12:17.523Z,25.83
2017-07-11T15:14:50.021Z,25.65
2017-07-11T15:17:22.657Z,25.38
2017-07-11T15:19:54.728Z,25.31
2017-07-11T15:22:27.212Z,24.61
2017-07-11T15:24:59.674Z,23.73
2017-07-11T15:27:32.105Z,22.77
2017-07-11T15:30:04.930Z,22.13
2017-07-11T15:32:37.034Z,21.29
2017-07-11T15:35:09.413Z,20.87
2017-07-11T15:37:42.058Z,20.26
2017-07-11T15:40:14.036Z,20.06
2017-07-11T15:42:47.490Z,19.67
2017-07-11T15:45:19.873Z,19.27
2017-07-11T15:47:52.227Z,19.11
2017-07-11T15:50:24.548Z,19.04
2017-07-11T15:52:56.933Z,19.07
2017-07-11T15:55:29.181Z,19.12
2017-07-11T15:58:01.458Z,19.13
2017-07-11T16:00:33.923Z,19.10
2017-07-11T16:03:06.380Z,19.19
2017-07-11T16:05:39.380Z,19.35
2017-07-11T16:08:12.823Z,19.41
2017-07-11T16:10:45.452Z,19.51
2017-07-11T16:13:17.946Z,19.68
2017-07-11T16:15:50.214Z,19.84
2017-07-11T16:18:22.738Z,19.92
2017-07-11T16:20:55.082Z,19.88
2017-07-11T16:23:28.180Z,19.97
2017-07-11T16:26:00.788Z,20.04
2017-07-11T16:28:33.209Z,19.96
2017-07-11T16:31:05.559Z,19.86
2017-07-11T16:33:38.029Z,19.85
2017-07-11T16:36:11.549Z,19.94
2017-07-11T16:38:43.757Z,20.04
2017-07-11T16:41:16.158Z,20.12
2017-07-11T16:43:48.536Z,20.22
2017-07-11T16:46:20.931Z,20.26
2017-07-11T16:48:53.385Z,20.27
2017-07-11T18:13:35.438Z,20.67
2017-07-11T18:16:07.832Z,20.66
2017-07-11T18:18:40.251Z,20.66
2017-07-11T18:21:12.622Z,20.58
2017-07-11T18:23:46.055Z,20.56
2017-07-11T18:26:18.609Z,20.46
2017-07-11T18:28:51.077Z,20.44
2017-07-11T18:31:23.381Z,20.38
2017-07-11T18:33:55.652Z,20.32
2017-07-11T18:36:28.017Z,20.32
2017-07-11T18:39:00.401Z,20.27
2017-07-11T18:41:32.682Z,20.26
2017-07-11T18:44:05.084Z,20.23
2017-07-11T18:46:37.539Z,20.11
2017-07-11T18:49:18.070Z,20.09
2017-07-11T18:51:50.500Z,20.02
2017-07-11T18:54:23.020Z,20.01
2017-07-11T18:56:57.296Z,20.06
2017-07-11T18:59:30.007Z,20.03
2017-07-11T19:02:02.110Z,20.02
2017-07-11T19:04:34.500Z,19.98
2017-07-11T19:07:07.009Z,20.02
2017-07-11T19:09:39.395Z,19.99
2017-07-11T19:12:11.784Z,19.95
2017-07-11T19:14:46.033Z,19.85
2017-07-11T19:17:18.452Z,19.72
2017-07-11T19:19:50.772Z,19.70
2017-07-11T19:22:23.269Z,19.68
2017-07-11T19:24:55.444Z,19.63
2017-07-11T19:27:27.669Z,19.58
2017-07-11T19:30:00.389Z,19.53
2017-07-11T19:32:32.692Z,19.43
2017-07-11T19:35:05.235Z,19.37
2017-07-11T19:37:38.522Z,19.35
2017-07-11T19:40:10.850Z,19.30
2017-07-11T19:42:43.206Z,19.27
2017-07-11T19:45:15.624Z,19.28
2017-07-11T19:47:47.952Z,19.29
2017-07-11T19:50:20.217Z,19.25
2017-07-11T19:52:52.493Z,19.21
2017-07-11T19:55:26.027Z,19.20
2017-07-11T19:57:58.490Z,19.14
2017-07-11T20:00:30.636Z,19.07
2017-07-11T20:03:03.031Z,19.04
2017-07-11T20:05:35.364Z,19.01
2017-07-11T20:08:07.670Z,18.89
2017-07-11T20:10:40.005Z,18.84
2017-07-11T20:13:13.386Z,18.77
2017-07-11T20:15:46.077Z,18.67
2017-07-11T20:18:18.395Z,18.55
2017-07-11T20:20:50.884Z,18.51
2017-07-11T20:23:23.224Z,18.40
2017-07-11T20:25:55.564Z,18.39
2017-07-11T20:28:27.905Z,18.34
2017-07-11T20:31:00.672Z,18.31
2017-07-11T20:33:32.644Z,18.32
2017-07-11T20:36:05.372Z,18.33
2017-07-11T20:38:37.849Z,18.33
2017-07-11T20:41:09.987Z,18.28
2017-07-11T20:43:42.569Z,18.24
2017-07-11T20:46:14.671Z,18.20
2017-07-11T20:48:47.080Z,18.17
2017-07-11T20:51:20.665Z,18.20
2017-07-11T20:53:53.270Z,18.20
2017-07-11T20:56:26.509Z,18.18
2017-07-11T20:58:59.201Z,18.15
2017-07-11T21:01:31.537Z,18.11
2017-07-11T21:04:03.792Z,18.09
2017-07-11T21:06:42.953Z,18.08
2017-07-11T21:09:15.604Z,18.04
2017-07-11T21:11:48.377Z,17.96
2017-07-11T21:14:20.438Z,17.92
2017-07-11T21:16:52.837Z,17.87
2017-07-11T21:19:25.205Z,17.86
2017-07-11T21:21:57.778Z,17.86
2017-07-11T21:24:30.131Z,17.88
2017-07-11T21:27:02.697Z,17.81
2017-07-11T21:29:34.933Z,17.90
2017-07-11T21:32:07.772Z,17.90
2017-07-11T21:34:39.681Z,17.84
2017-07-11T21:37:12.020Z,17.78
2017-07-11T21:39:44.461Z,17.72
2017-07-11T21:42:16.956Z,17.69
2017-07-11T21:44:49.327Z,17.68
2017-07-11T21:47:21.758Z,17.70
2017-07-11T21:49:54.589Z,17.71
2017-07-11T21:52:26.609Z,17.70
2017-07-11T21:54:58.988Z,17.70
2017-07-11T21:57:31.371Z,17.69
2017-07-11T22:00:03.785Z,17.70
2017-07-11T22:02:36.160Z,17.74
2017-07-11T22:05:08.727Z,17.78
2017-07-11T22:07:42.054Z,17.84
2017-07-11T22:10:14.493Z,17.83
2017-07-11T22:12:46.922Z,17.79
2017-07-11T22:15:19.356Z,17.74
2017-07-11T22:17:52.356Z,17.72
2017-07-11T22:20:24.232Z,17.73
2017-07-11T22:22:56.830Z,17.80
2017-07-11T22:25:29.150Z,17.83
2017-07-11T22:28:01.473Z,17.81
2017-07-11T22:30:34.200Z,17.86
2017-07-11T22:33:06.295Z,17.83
2017-07-11T22:35:38.729Z,17.81
2017-07-11T22:38:11.422Z,17.81
2017-07-11T22:40:45.186Z,17.87
2017-07-11T22:43:17.024Z,17.85
2017-07-11T22:45:49.458Z,17.86
2017-07-11T22:48:21.807Z,17.91
2017-07-11T22:50:54.140Z,17.99
2017-07-11T22:53:26.546Z,18.03
2017-07-11T22:55:58.909Z,18.03
2017-07-11T22:58:31.368Z,18.06
2017-07-11T23:01:04.588Z,18.06
2017-07-11T23:03:37.228Z,18.02
2017-07-11T23:06:09.993Z,18.05
2017-07-11T23:08:43.017Z,18.09
2017-07-11T23:11:15.438Z,18.02
2017-07-11T23:13:47.900Z,18.05
2017-07-11T23:16:20.216Z,18.05
2017-07-11T23:18:52.716Z,18.03
2017-07-11T23:21:24.898Z,17.99
2017-07-11T23:23:57.397Z,18.02
2017-07-11T23:26:29.617Z,18.05
2017-07-11T23:29:01.965Z,18.04
2017-07-11T23:31:34.419Z,18.02
2017-07-11T23:34:06.845Z,18.00
2017-07-11T23:36:39.189Z,18.02
2017-07-11T23:39:11.573Z,18.07
2017-07-11T23:41:43.998Z,18.03
2017-07-11T23:44:16.340Z,18.01
2017-07-11T23:46:48.765Z,17.94
2017-07-11T23:49:21.094Z,18.01
2017-07-11T23:51:53.548Z,18.00
2017-07-11T23:54:25.976Z,18.05
2017-07-11T23:56:58.396Z,18.03
2017-07-11T23:59:30.769Z,17.99
